createdAt,value
2023-06-11T00:00:11.094Z,20.47
2023-06-11T00:01:13.105Z,20.46
2023-06-11T00:02:11.165Z,20.49
2023-06-11T00:03:11.279Z,20.52
2023-06-11T00:04:11.178Z,20.51
2023-06-11T00:05:12.537Z,20.52
2023-06-11T00:06:11.102Z,20.53
2023-06-11T00:07:11.157Z,20.52
2023-06-11T00:08:11.179Z,20.53
2023-06-11T00:09:11.093Z,20.52
2023-06-11T00:10:11.101Z,20.53
2023-06-11T00:11:11.113Z,20.54
2023-06-11T00:12:11.164Z,20.55
2023-06-11T00:13:11.100Z,20.56
2023-06-11T00:14:11.090Z,20.56
2023-06-11T00:15:11.302Z,20.58
2023-06-11T00:16:11.111Z,20.58
2023-06-11T00:17:11.181Z,20.58
2023-06-11T00:18:11.121Z,20.59
2023-06-11T00:19:11.103Z,20.59
2023-06-11T00:20:15.114Z,20.60
2023-06-11T00:21:11.102Z,20.61
2023-06-11T00:22:11.102Z,20.61
2023-06-11T00:23:11.106Z,20.62
2023-06-11T00:24:15.226Z,20.64
2023-06-11T00:25:11.458Z,20.58
2023-06-11T00:26:12.111Z,20.60
2023-06-11T00:27:11.128Z,20.61
2023-06-11T00:28:11.105Z,20.61
2023-06-11T00:29:11.111Z,20.59
2023-06-11T00:30:11.104Z,20.58
2023-06-11T00:31:11.159Z,20.58
2023-06-11T00:32:11.223Z,20.58
2023-06-11T00:33:11.125Z,20.57
2023-06-11T00:34:11.103Z,20.59
2023-06-11T00:35:12.385Z,20.58
2023-06-11T00:36:11.109Z,20.56
2023-06-11T00:37:11.118Z,20.52
2023-06-11T00:38:11.106Z,20.54
2023-06-11T00:39:11.112Z,20.53
2023-06-11T00:40:11.125Z,20.52
2023-06-11T00:41:11.106Z,20.54
2023-06-11T00:42:11.120Z,20.54
2023-06-11T00:43:12.097Z,20.54
2023-06-11T00:44:11.105Z,20.54
2023-06-11T00:45:11.353Z,20.53
2023-06-11T00:46:15.119Z,20.53
2023-06-11T00:47:11.143Z,20.48
2023-06-11T00:48:11.151Z,20.50
2023-06-11T00:49:11.098Z,20.51
2023-06-11T00:50:11.104Z,20.51
2023-06-11T00:51:11.110Z,20.50
2023-06-11T00:52:14.103Z,20.53
2023-06-11T00:53:11.101Z,20.54
2023-06-11T00:54:13.102Z,20.54
2023-06-11T00:55:11.378Z,20.54
2023-06-11T00:56:11.101Z,20.53
2023-06-11T00:57:11.157Z,20.51
2023-06-11T00:58:15.164Z,20.52
2023-06-11T00:59:11.102Z,20.51
2023-06-11T01:00:15.126Z,20.52
2023-06-11T01:01:11.096Z,20.52
2023-06-11T01:02:15.069Z,20.52
2023-06-11T01:03:13.068Z,20.51
2023-06-11T01:04:16.161Z,20.48
2023-06-11T01:05:11.468Z,20.48
2023-06-11T01:06:13.078Z,20.49
2023-06-11T01:07:11.072Z,20.50
2023-06-11T01:08:14.079Z,20.49
2023-06-11T01:09:11.063Z,20.49
2023-06-11T01:10:11.068Z,20.47
2023-06-11T01:11:17.067Z,20.47
2023-06-11T01:12:13.064Z,20.47
2023-06-11T01:13:11.064Z,20.47
2023-06-11T01:14:11.070Z,20.46
2023-06-11T01:15:11.296Z,20.48
2023-06-11T01:16:15.070Z,20.46
2023-06-11T01:17:16.151Z,20.45
2023-06-11T01:18:17.070Z,20.43
2023-06-11T01:19:19.067Z,20.43
2023-06-11T01:20:19.064Z,20.44
2023-06-11T01:21:14.070Z,20.42
2023-06-11T01:22:16.067Z,20.42
2023-06-11T01:23:21.070Z,20.41
2023-06-11T01:24:19.327Z,20.37
2023-06-11T01:25:21.069Z,20.36
2023-06-11T01:26:16.074Z,20.33
2023-06-11T01:27:21.070Z,20.34
2023-06-11T01:28:11.093Z,20.34
2023-06-11T01:29:11.070Z,20.33
2023-06-11T01:30:13.088Z,20.31
2023-06-11T01:31:16.123Z,20.31
2023-06-11T01:32:11.070Z,20.30
2023-06-11T01:33:11.094Z,20.28
2023-06-11T01:34:11.137Z,20.28
2023-06-11T01:35:11.264Z,20.29
2023-06-11T01:36:11.073Z,20.28
2023-06-11T01:37:11.089Z,20.25
2023-06-11T01:38:13.149Z,20.23
2023-06-11T01:39:11.072Z,20.24
2023-06-11T01:40:11.073Z,20.23
2023-06-11T01:41:12.068Z,20.25
2023-06-11T01:42:11.072Z,20.22
2023-06-11T01:43:11.072Z,20.23
2023-06-11T01:44:11.086Z,20.21
2023-06-11T01:45:11.175Z,20.20
2023-06-11T01:46:11.107Z,20.20
2023-06-11T01:47:11.068Z,20.19
2023-06-11T01:48:11.075Z,20.18
2023-06-11T01:49:11.078Z,20.14
2023-06-11T01:50:11.074Z,20.13
2023-06-11T01:51:11.079Z,20.13
2023-06-11T01:52:11.084Z,20.09
2023-06-11T01:53:11.075Z,20.05
2023-06-11T01:54:11.091Z,20.00
2023-06-11T01:55:11.315Z,19.98
2023-06-11T01:56:13.070Z,19.93
2023-06-11T01:57:11.096Z,19.90
2023-06-11T01:58:11.079Z,19.86
2023-06-11T01:59:11.077Z,19.85
2023-06-11T02:00:11.093Z,19.84
2023-06-11T02:01:13.083Z,19.85
2023-06-11T02:02:11.177Z,19.83
2023-06-11T02:03:11.285Z,19.82
2023-06-11T02:04:11.217Z,19.84
2023-06-11T02:05:11.435Z,19.83
2023-06-11T02:06:11.072Z,19.81
2023-06-11T02:07:11.076Z,19.77
2023-06-11T02:08:11.074Z,19.76
2023-06-11T02:09:11.070Z,19.76
2023-06-11T02:10:11.099Z,19.78
2023-06-11T02:11:11.102Z,19.78
2023-06-11T02:12:11.082Z,19.77
2023-06-11T02:13:11.081Z,19.75
2023-06-11T02:14:11.082Z,19.71
2023-06-11T02:15:11.577Z,19.72
2023-06-11T02:16:11.105Z,19.65
2023-06-11T02:17:11.084Z,19.68
2023-06-11T02:18:11.164Z,19.68
2023-06-11T02:19:11.076Z,19.70
2023-06-11T02:20:11.077Z,19.70
2023-06-11T02:21:11.077Z,19.71
2023-06-11T02:22:11.084Z,19.73
2023-06-11T02:23:11.082Z,19.74
2023-06-11T02:24:11.108Z,19.77
2023-06-11T02:25:11.373Z,19.74
2023-06-11T02:26:11.084Z,19.74
2023-06-11T02:27:11.086Z,19.74
2023-06-11T02:28:11.085Z,19.67
2023-06-11T02:29:11.092Z,19.68
2023-06-11T02:30:11.080Z,19.68
2023-06-11T02:31:11.085Z,19.66
2023-06-11T02:32:11.179Z,19.62
2023-06-11T02:33:11.103Z,19.62
2023-06-11T02:34:11.083Z,19.60
2023-06-11T02:35:11.289Z,19.55
2023-06-11T02:36:11.077Z,19.54
2023-06-11T02:37:11.082Z,19.55
2023-06-11T02:38:11.082Z,19.55
2023-06-11T02:39:11.079Z,19.51
2023-06-11T02:40:11.089Z,19.51
2023-06-11T02:41:11.080Z,19.50
2023-06-11T02:42:11.085Z,19.52
2023-06-11T02:43:11.086Z,19.50
2023-06-11T02:44:11.083Z,19.47
2023-06-11T02:45:11.451Z,19.47
2023-06-11T02:46:11.161Z,19.49
2023-06-11T02:47:11.090Z,19.46
2023-06-11T02:48:11.081Z,19.46
2023-06-11T02:49:11.122Z,19.44
2023-06-11T02:50:11.108Z,19.42
2023-06-11T02:51:11.083Z,19.44
2023-06-11T02:52:11.092Z,19.42
2023-06-11T02:53:11.097Z,19.43
2023-06-11T02:54:11.084Z,19.42
2023-06-11T02:55:11.426Z,19.32
2023-06-11T02:56:11.087Z,19.30
2023-06-11T02:57:11.102Z,19.29
2023-06-11T02:58:11.093Z,19.30
2023-06-11T02:59:11.094Z,19.26
2023-06-11T03:00:11.099Z,19.13
2023-06-11T03:01:11.141Z,19.16
2023-06-11T03:02:11.107Z,19.12
2023-06-11T03:03:11.149Z,19.10
2023-06-11T03:04:11.121Z,19.06
2023-06-11T03:05:11.479Z,19.07
2023-06-11T03:06:11.090Z,19.09
2023-06-11T03:07:11.088Z,19.11
2023-06-11T03:08:11.099Z,19.10
2023-06-11T03:09:11.091Z,19.14
2023-06-11T03:10:11.097Z,19.13
2023-06-11T03:11:11.105Z,19.12
2023-06-11T03:12:11.090Z,19.13
2023-06-11T03:13:11.090Z,19.14
2023-06-11T03:14:11.093Z,19.14
2023-06-11T03:15:11.397Z,19.12
2023-06-11T03:16:11.145Z,19.13
2023-06-11T03:17:11.101Z,19.14
2023-06-11T03:18:11.088Z,19.11
2023-06-11T03:19:11.100Z,19.09
2023-06-11T03:20:11.109Z,19.08
2023-06-11T03:21:11.089Z,19.10
2023-06-11T03:22:11.095Z,19.10
2023-06-11T03:23:11.094Z,19.12
2023-06-11T03:24:11.159Z,19.12
2023-06-11T03:25:11.431Z,19.10
2023-06-11T03:26:11.100Z,19.07
2023-06-11T03:27:11.102Z,19.07
2023-06-11T03:28:11.095Z,19.07
2023-06-11T03:29:11.098Z,19.09
2023-06-11T03:30:11.105Z,19.04
2023-06-11T03:31:11.137Z,19.02
2023-06-11T03:32:13.113Z,18.99
2023-06-11T03:33:11.143Z,18.99
2023-06-11T03:34:11.109Z,18.97
2023-06-11T03:35:11.670Z,18.98
2023-06-11T03:36:11.097Z,19.00
2023-06-11T03:37:11.087Z,19.01
2023-06-11T03:38:11.094Z,19.03
2023-06-11T03:39:11.092Z,19.03
2023-06-11T03:40:11.091Z,19.04
2023-06-11T03:41:11.095Z,19.03
2023-06-11T03:42:11.091Z,19.03
2023-06-11T03:43:11.104Z,19.05
2023-06-11T03:44:11.093Z,19.03
2023-06-11T03:45:11.301Z,19.02
2023-06-11T03:46:11.098Z,18.97
2023-06-11T03:47:11.182Z,18.88
2023-06-11T03:48:11.196Z,18.83
2023-06-11T03:49:11.099Z,18.78
2023-06-11T03:50:11.142Z,18.80
2023-06-11T03:51:11.103Z,18.84
2023-06-11T03:52:11.096Z,18.86
2023-06-11T03:53:11.109Z,18.84
2023-06-11T03:54:11.100Z,18.85
2023-06-11T03:55:11.271Z,18.85
2023-06-11T03:56:11.098Z,18.82
2023-06-11T03:57:11.097Z,18.83
2023-06-11T03:58:11.096Z,18.83
2023-06-11T03:59:11.102Z,18.80
2023-06-11T04:00:11.100Z,18.82
2023-06-11T04:01:11.065Z,18.82
2023-06-11T04:02:11.155Z,18.80
2023-06-11T04:03:11.210Z,18.79
2023-06-11T04:04:11.077Z,18.77
2023-06-11T04:05:11.322Z,18.75
2023-06-11T04:06:11.074Z,18.72
2023-06-11T04:07:11.061Z,18.72
2023-06-11T04:08:11.062Z,18.71
2023-06-11T04:09:11.078Z,18.66
2023-06-11T04:10:11.114Z,18.63
2023-06-11T04:11:11.081Z,18.59
2023-06-11T04:12:11.102Z,18.56
2023-06-11T04:13:11.064Z,18.61
2023-06-11T04:14:11.064Z,18.65
2023-06-11T04:15:11.322Z,18.67
2023-06-11T04:16:11.063Z,18.64
2023-06-11T04:17:11.105Z,18.60
2023-06-11T04:18:11.217Z,18.59
2023-06-11T04:19:11.063Z,18.60
2023-06-11T04:20:11.064Z,18.57
2023-06-11T04:21:11.072Z,18.54
2023-06-11T04:22:11.064Z,18.46
2023-06-11T04:23:11.068Z,18.43
2023-06-11T04:24:11.114Z,18.40
2023-06-11T04:25:11.370Z,18.44
2023-06-11T04:26:12.067Z,18.42
2023-06-11T04:27:11.089Z,18.44
2023-06-11T04:28:11.062Z,18.48
2023-06-11T04:29:11.069Z,18.45
2023-06-11T04:30:11.069Z,18.46
2023-06-11T04:31:11.107Z,18.48
2023-06-11T04:32:11.070Z,18.46
2023-06-11T04:33:11.134Z,18.44
2023-06-11T04:34:11.065Z,18.47
2023-06-11T04:35:13.697Z,18.49
2023-06-11T04:36:11.082Z,18.49
2023-06-11T04:37:11.070Z,18.48
2023-06-11T04:38:11.066Z,18.50
2023-06-11T04:39:11.069Z,18.50
2023-06-11T04:40:15.072Z,18.51
2023-06-11T04:41:16.076Z,18.48
2023-06-11T04:42:11.066Z,18.48
2023-06-11T04:43:11.073Z,18.50
2023-06-11T04:44:11.073Z,18.50
2023-06-11T04:45:13.350Z,18.49
2023-06-11T04:46:11.098Z,18.47
2023-06-11T04:47:11.070Z,18.47
2023-06-11T04:48:11.070Z,18.42
2023-06-11T04:49:11.073Z,18.41
2023-06-11T04:50:11.091Z,18.40
2023-06-11T04:51:11.072Z,18.41
2023-06-11T04:52:11.075Z,18.40
2023-06-11T04:53:11.081Z,18.40
2023-06-11T04:54:12.069Z,18.35
2023-06-11T04:55:11.579Z,18.36
2023-06-11T04:56:11.081Z,18.35
2023-06-11T04:57:11.072Z,18.34
2023-06-11T04:58:11.085Z,18.31
2023-06-11T04:59:11.083Z,18.31
2023-06-11T05:00:13.414Z,18.35
2023-06-11T05:01:11.068Z,18.37
2023-06-11T05:02:11.103Z,18.38
2023-06-11T05:03:11.114Z,18.35
2023-06-11T05:04:11.074Z,18.36
2023-06-11T05:05:11.330Z,18.36
2023-06-11T05:06:11.081Z,18.39
2023-06-11T05:07:11.069Z,18.41
2023-06-11T05:08:11.109Z,18.43
2023-06-11T05:09:11.109Z,18.45
2023-06-11T05:10:11.074Z,18.48
2023-06-11T05:11:11.086Z,18.50
2023-06-11T05:12:11.081Z,18.48
2023-06-11T05:13:11.083Z,18.47
2023-06-11T05:14:11.099Z,18.38
2023-06-11T05:15:11.405Z,18.37
2023-06-11T05:16:11.128Z,18.31
2023-06-11T05:17:11.082Z,18.29
2023-06-11T05:18:11.138Z,18.26
2023-06-11T05:19:11.083Z,18.27
2023-06-11T05:20:11.099Z,18.28
2023-06-11T05:21:11.089Z,18.29
2023-06-11T05:22:11.080Z,18.28
2023-06-11T05:23:11.099Z,18.26
2023-06-11T05:24:13.124Z,18.28
2023-06-11T05:25:11.518Z,18.26
2023-06-11T05:26:15.092Z,18.19
2023-06-11T05:27:11.104Z,18.22
2023-06-11T05:28:11.084Z,18.21
2023-06-11T05:29:11.081Z,18.23
2023-06-11T05:30:11.083Z,18.22
2023-06-11T05:31:11.087Z,18.18
2023-06-11T05:32:11.240Z,18.19
2023-06-11T05:33:13.106Z,18.16
2023-06-11T05:34:11.096Z,18.09
2023-06-11T05:35:11.528Z,18.15
2023-06-11T05:36:11.085Z,18.17
2023-06-11T05:37:11.093Z,18.21
2023-06-11T05:38:12.085Z,18.26
2023-06-11T05:39:11.083Z,18.27
2023-06-11T05:40:11.101Z,18.28
2023-06-11T05:41:11.081Z,18.30
2023-06-11T05:42:11.081Z,18.29
2023-06-11T05:43:11.092Z,18.31
2023-06-11T05:44:11.092Z,18.34
2023-06-11T05:45:11.586Z,18.36
2023-06-11T05:46:11.185Z,18.36
2023-06-11T05:47:11.137Z,18.39
2023-06-11T05:48:11.099Z,18.39
2023-06-11T05:49:11.084Z,18.38
2023-06-11T05:50:11.085Z,18.39
2023-06-11T05:51:11.081Z,18.38
2023-06-11T05:52:11.083Z,18.35
2023-06-11T05:53:11.088Z,18.36
2023-06-11T05:54:11.080Z,18.40
2023-06-11T05:55:11.421Z,18.40
2023-06-11T05:56:11.085Z,18.41
2023-06-11T05:57:21.083Z,18.43
2023-06-11T05:58:11.090Z,18.44
2023-06-11T05:59:11.104Z,18.46
2023-06-11T06:00:11.088Z,18.43
2023-06-11T06:01:11.085Z,18.44
2023-06-11T06:02:11.136Z,18.41
2023-06-11T06:03:11.168Z,18.45
2023-06-11T06:04:11.182Z,18.48
2023-06-11T06:05:11.304Z,18.47
2023-06-11T06:06:11.089Z,18.50
2023-06-11T06:07:11.081Z,18.54
2023-06-11T06:08:11.088Z,18.59
2023-06-11T06:09:11.094Z,18.63
2023-06-11T06:10:11.088Z,18.64
2023-06-11T06:11:11.095Z,18.65
2023-06-11T06:12:11.087Z,18.63
2023-06-11T06:13:11.101Z,18.64
2023-06-11T06:14:11.101Z,18.68
2023-06-11T06:15:11.267Z,18.71
2023-06-11T06:16:11.130Z,18.78
2023-06-11T06:17:11.097Z,18.78
2023-06-11T06:18:11.187Z,18.82
2023-06-11T06:19:11.089Z,18.84
2023-06-11T06:20:11.092Z,18.88
2023-06-11T06:21:11.091Z,18.93
2023-06-11T06:22:11.088Z,18.98
2023-06-11T06:23:11.099Z,18.91
2023-06-11T06:24:11.118Z,18.87
2023-06-11T06:25:11.510Z,18.90
2023-06-11T06:26:11.110Z,18.93
2023-06-11T06:27:11.088Z,18.92
2023-06-11T06:28:11.099Z,18.97
2023-06-11T06:29:13.098Z,19.00
2023-06-11T06:30:11.093Z,19.00
2023-06-11T06:31:12.132Z,19.06
2023-06-11T06:32:11.121Z,19.07
2023-06-11T06:33:11.213Z,19.07
2023-06-11T06:34:11.098Z,19.07
2023-06-11T06:35:11.378Z,19.07
2023-06-11T06:36:11.094Z,19.04
2023-06-11T06:37:11.089Z,19.03
2023-06-11T06:38:11.096Z,19.04
2023-06-11T06:39:11.133Z,19.04
2023-06-11T06:40:11.354Z,19.03
2023-06-11T06:41:11.114Z,19.08
2023-06-11T06:42:11.096Z,19.15
2023-06-11T06:43:11.093Z,19.20
2023-06-11T06:44:11.094Z,19.20
2023-06-11T06:45:11.428Z,19.21
2023-06-11T06:46:11.096Z,19.23
2023-06-11T06:47:11.100Z,19.25
2023-06-11T06:48:11.266Z,19.25
2023-06-11T06:49:11.097Z,19.27
2023-06-11T06:50:11.360Z,19.30
2023-06-11T06:51:11.102Z,19.32
2023-06-11T06:52:11.097Z,19.35
2023-06-11T06:53:11.101Z,19.37
2023-06-11T06:54:11.106Z,19.40
2023-06-11T06:55:11.107Z,19.48
2023-06-11T06:56:11.102Z,19.52
2023-06-11T06:57:12.120Z,19.54
2023-06-11T06:58:11.101Z,19.55
2023-06-11T06:59:11.105Z,19.55
2023-06-11T07:00:11.503Z,19.54
2023-06-11T07:01:11.120Z,19.56
2023-06-11T07:02:11.069Z,19.58
2023-06-11T07:03:11.071Z,19.56
2023-06-11T07:04:11.070Z,19.58
2023-06-11T07:05:11.108Z,19.58
2023-06-11T07:06:11.126Z,19.57
2023-06-11T07:07:11.071Z,19.57
2023-06-11T07:08:11.066Z,19.57
2023-06-11T07:09:11.079Z,19.61
2023-06-11T07:10:11.564Z,19.64
2023-06-11T07:11:11.081Z,19.62
2023-06-11T07:12:11.074Z,19.68
2023-06-11T07:13:11.074Z,19.80
2023-06-11T07:14:11.066Z,19.85
2023-06-11T07:15:11.072Z,19.86
2023-06-11T07:16:11.096Z,19.88
2023-06-11T07:17:11.066Z,19.86
2023-06-11T07:18:11.144Z,19.86
2023-06-11T07:19:11.071Z,19.84
2023-06-11T07:20:12.260Z,19.88
2023-06-11T07:21:11.070Z,19.90
2023-06-11T07:22:11.079Z,19.96
2023-06-11T07:23:11.070Z,19.93
2023-06-11T07:24:12.102Z,19.90
2023-06-11T07:25:11.068Z,19.93
2023-06-11T07:26:11.069Z,19.96
2023-06-11T07:27:11.073Z,20.00
2023-06-11T07:28:11.085Z,20.02
2023-06-11T07:29:13.082Z,20.07
2023-06-11T07:30:11.453Z,20.11
2023-06-11T07:31:11.119Z,20.17
2023-06-11T07:32:11.070Z,20.24
2023-06-11T07:33:11.094Z,20.31
2023-06-11T07:34:11.080Z,20.33
2023-06-11T07:35:11.073Z,20.34
2023-06-11T07:36:11.076Z,20.41
2023-06-11T07:37:11.092Z,20.43
2023-06-11T07:38:11.072Z,20.47
2023-06-11T07:39:11.077Z,20.50
2023-06-11T07:40:11.423Z,20.47
2023-06-11T07:41:11.074Z,20.40
2023-06-11T07:42:11.071Z,20.50
2023-06-11T07:43:11.089Z,20.64
2023-06-11T07:44:11.084Z,20.77
2023-06-11T07:45:11.082Z,20.87
2023-06-11T07:46:11.153Z,20.93
2023-06-11T07:47:11.073Z,20.89
2023-06-11T07:48:11.115Z,20.91
2023-06-11T07:49:11.080Z,21.00
2023-06-11T07:50:11.218Z,21.01
2023-06-11T07:51:11.072Z,21.10
2023-06-11T07:52:11.085Z,21.20
2023-06-11T07:53:11.078Z,21.19
2023-06-11T07:54:11.070Z,21.27
2023-06-11T07:55:11.076Z,21.36
2023-06-11T07:56:11.086Z,21.36
2023-06-11T07:57:11.319Z,21.39
2023-06-11T07:58:11.080Z,21.46
2023-06-11T07:59:11.074Z,21.50
2023-06-11T08:00:15.255Z,21.53
2023-06-11T08:01:11.081Z,21.56
2023-06-11T08:02:11.138Z,21.61
2023-06-11T08:03:11.133Z,21.59
2023-06-11T08:04:11.079Z,21.62
2023-06-11T08:05:11.080Z,21.63
2023-06-11T08:06:11.199Z,21.67
2023-06-11T08:07:11.078Z,21.64
2023-06-11T08:08:11.077Z,21.69
2023-06-11T08:09:11.078Z,21.62
2023-06-11T08:10:11.325Z,21.66
2023-06-11T08:11:11.088Z,21.72
2023-06-11T08:12:11.080Z,21.77
2023-06-11T08:13:11.078Z,21.83
2023-06-11T08:14:11.093Z,21.85
2023-06-11T08:15:11.093Z,21.93
2023-06-11T08:16:11.150Z,21.97
2023-06-11T08:17:11.125Z,22.02
2023-06-11T08:18:11.133Z,22.05
2023-06-11T08:19:11.080Z,22.04
2023-06-11T08:20:12.367Z,22.05
2023-06-11T08:21:11.084Z,22.09
2023-06-11T08:22:11.081Z,22.06
2023-06-11T08:23:11.084Z,22.05
2023-06-11T08:24:11.116Z,22.08
2023-06-11T08:25:11.087Z,22.09
2023-06-11T08:26:11.085Z,22.12
2023-06-11T08:27:11.077Z,22.18
2023-06-11T08:28:11.087Z,22.21
2023-06-11T08:29:11.088Z,22.30
2023-06-11T08:30:11.359Z,22.39
2023-06-11T08:31:11.083Z,22.42
2023-06-11T08:32:11.177Z,22.44
2023-06-11T08:33:11.169Z,22.45
2023-06-11T08:34:11.087Z,22.51
2023-06-11T08:35:11.090Z,22.58
2023-06-11T08:36:11.091Z,22.67
2023-06-11T08:37:11.090Z,22.72
2023-06-11T08:38:11.094Z,22.79
2023-06-11T08:39:11.090Z,22.82
2023-06-11T08:40:11.436Z,22.87
2023-06-11T08:41:11.092Z,22.93
2023-06-11T08:42:11.087Z,22.94
2023-06-11T08:43:11.082Z,22.94
2023-06-11T08:44:11.088Z,23.02
2023-06-11T08:45:11.082Z,23.10
2023-06-11T08:46:15.138Z,23.15
2023-06-11T08:47:11.086Z,23.21
2023-06-11T08:48:11.142Z,23.24
2023-06-11T08:49:15.092Z,23.33
2023-06-11T08:50:11.448Z,23.37
2023-06-11T08:51:11.090Z,23.41
2023-06-11T08:52:11.084Z,23.52
2023-06-11T08:53:11.085Z,23.65
2023-06-11T08:54:11.095Z,23.47
2023-06-11T08:55:11.081Z,23.60
2023-06-11T08:56:11.086Z,23.75
2023-06-11T08:57:12.092Z,23.82
2023-06-11T08:58:11.105Z,23.87
2023-06-11T08:59:11.084Z,23.93
2023-06-11T09:00:12.445Z,24.09
2023-06-11T09:01:13.110Z,24.23
2023-06-11T09:02:11.140Z,24.29
2023-06-11T09:03:11.123Z,24.37
2023-06-11T09:04:11.154Z,24.40
2023-06-11T09:05:11.082Z,24.43
2023-06-11T09:06:11.087Z,24.52
2023-06-11T09:07:11.084Z,24.63
2023-06-11T09:08:11.081Z,24.68
2023-06-11T09:09:13.119Z,24.80
2023-06-11T09:10:11.457Z,24.92
2023-06-11T09:11:11.096Z,24.88
2023-06-11T09:12:11.087Z,24.94
2023-06-11T09:13:11.090Z,25.01
2023-06-11T09:14:11.093Z,25.00
2023-06-11T09:15:11.093Z,25.02
2023-06-11T09:16:11.111Z,25.05
2023-06-11T09:17:15.089Z,25.07
2023-06-11T09:18:11.142Z,25.18
2023-06-11T09:19:16.089Z,25.24
2023-06-11T09:20:11.423Z,25.34
2023-06-11T09:21:12.092Z,25.38
2023-06-11T09:22:11.094Z,25.47
2023-06-11T09:23:11.088Z,25.57
2023-06-11T09:24:11.253Z,25.71
2023-06-11T09:25:11.659Z,25.71
2023-06-11T09:26:11.092Z,25.67
2023-06-11T09:27:12.093Z,25.75
2023-06-11T09:28:11.106Z,25.79
2023-06-11T09:29:11.092Z,25.70
2023-06-11T09:30:11.459Z,25.53
2023-06-11T09:31:11.093Z,25.75
2023-06-11T09:32:31.223Z,25.88
2023-06-11T09:33:19.143Z,25.94
2023-06-11T09:34:11.097Z,26.08
2023-06-11T09:35:13.099Z,26.15
2023-06-11T09:36:11.103Z,26.18
2023-06-11T09:37:13.095Z,26.30
2023-06-11T09:38:17.101Z,26.38
2023-06-11T09:39:11.130Z,26.47
2023-06-11T09:40:17.099Z,26.45
2023-06-11T09:41:11.098Z,26.52
2023-06-11T09:42:18.097Z,26.57
2023-06-11T09:43:11.099Z,26.61
2023-06-11T09:44:11.096Z,26.70
2023-06-11T09:45:15.093Z,26.79
2023-06-11T09:46:11.133Z,26.83
2023-06-11T09:47:11.101Z,26.79
2023-06-11T09:48:12.173Z,26.87
2023-06-11T09:49:11.094Z,26.95
2023-06-11T09:50:11.372Z,26.97
2023-06-11T09:51:11.148Z,26.98
2023-06-11T09:52:11.121Z,26.94
2023-06-11T09:53:12.113Z,27.03
2023-06-11T09:54:11.112Z,27.13
2023-06-11T09:55:11.101Z,27.09
2023-06-11T09:56:12.159Z,27.12
2023-06-11T09:57:11.101Z,27.18
2023-06-11T09:58:11.102Z,27.16
2023-06-11T09:59:11.105Z,27.15
2023-06-11T10:00:12.345Z,27.19
2023-06-11T10:01:11.086Z,27.25
2023-06-11T10:02:11.064Z,27.11
2023-06-11T10:03:11.131Z,27.30
2023-06-11T10:04:11.166Z,27.40
2023-06-11T10:05:11.111Z,27.35
2023-06-11T10:06:16.926Z,27.50
2023-06-11T10:07:11.064Z,27.65
2023-06-11T10:08:12.077Z,27.72
2023-06-11T10:09:13.074Z,27.78
2023-06-11T10:10:11.325Z,27.86
2023-06-11T10:11:11.063Z,27.97
2023-06-11T10:12:11.561Z,28.09
2023-06-11T10:13:11.075Z,28.13
2023-06-11T10:14:15.092Z,28.15
2023-06-11T10:15:13.070Z,28.24
2023-06-11T10:16:11.148Z,28.32
2023-06-11T10:17:11.067Z,28.28
2023-06-11T10:18:15.169Z,28.07
2023-06-11T10:19:12.085Z,28.02
2023-06-11T10:20:17.104Z,28.16
2023-06-11T10:21:11.073Z,28.19
2023-06-11T10:22:11.078Z,28.31
2023-06-11T10:23:12.087Z,28.34
2023-06-11T10:24:15.129Z,28.34
2023-06-11T10:25:11.079Z,28.39
2023-06-11T10:26:12.124Z,28.48
2023-06-11T10:27:13.073Z,28.47
2023-06-11T10:28:11.174Z,28.55
2023-06-11T10:29:13.083Z,28.59
2023-06-11T10:30:11.388Z,28.48
2023-06-11T10:31:11.074Z,28.50
2023-06-11T10:32:17.075Z,28.45
2023-06-11T10:33:11.139Z,28.45
2023-06-11T10:34:13.152Z,28.37
2023-06-11T10:35:19.126Z,28.42
2023-06-11T10:36:11.085Z,28.50
2023-06-11T10:37:11.086Z,28.51
2023-06-11T10:38:14.146Z,28.57
2023-06-11T10:39:11.088Z,28.61
2023-06-11T10:40:13.289Z,28.65
2023-06-11T10:41:11.078Z,28.70
2023-06-11T10:42:11.088Z,28.61
2023-06-11T10:43:19.076Z,28.81
2023-06-11T10:44:15.078Z,28.88
2023-06-11T10:45:11.076Z,28.91
2023-06-11T10:46:11.168Z,28.87
2023-06-11T10:47:11.117Z,28.75
2023-06-11T10:48:11.135Z,28.67
2023-06-11T10:49:15.089Z,28.81
2023-06-11T10:50:11.484Z,28.83
2023-06-11T10:51:15.080Z,28.83
2023-06-11T10:52:11.092Z,28.97
2023-06-11T10:53:13.114Z,28.94
2023-06-11T10:54:12.086Z,29.02
2023-06-11T10:55:11.269Z,29.01
2023-06-11T10:56:15.083Z,29.04
2023-06-11T10:57:11.078Z,29.04
2023-06-11T10:58:11.089Z,29.16
2023-06-11T10:59:13.088Z,29.16
2023-06-11T11:00:11.407Z,29.21
2023-06-11T11:01:11.102Z,29.28
2023-06-11T11:02:14.113Z,29.28
2023-06-11T11:03:11.155Z,29.42
2023-06-11T11:04:11.164Z,29.52
2023-06-11T11:05:11.514Z,29.49
2023-06-11T11:06:11.081Z,29.54
2023-06-11T11:07:15.087Z,29.50
2023-06-11T11:08:11.088Z,29.59
2023-06-11T11:09:11.080Z,29.68
2023-06-11T11:10:11.072Z,29.68
2023-06-11T11:11:11.091Z,29.63
2023-06-11T11:12:11.083Z,29.53
2023-06-11T11:13:11.093Z,29.67
2023-06-11T11:14:11.082Z,29.81
2023-06-11T11:15:11.293Z,29.79
2023-06-11T11:16:11.088Z,29.92
2023-06-11T11:17:11.193Z,29.99
2023-06-11T11:18:11.171Z,29.98
2023-06-11T11:19:12.140Z,30.19
2023-06-11T11:20:16.254Z,30.13
2023-06-11T11:21:11.085Z,29.41
2023-06-11T11:22:12.079Z,29.59
2023-06-11T11:23:11.080Z,29.42
2023-06-11T11:24:12.126Z,29.15
2023-06-11T11:25:11.422Z,28.65
2023-06-11T11:26:11.084Z,28.43
2023-06-11T11:27:11.088Z,28.23
2023-06-11T11:28:12.084Z,28.17
2023-06-11T11:29:11.082Z,28.08
2023-06-11T11:30:11.498Z,28.04
2023-06-11T11:31:11.078Z,27.99
2023-06-11T11:32:11.187Z,27.94
2023-06-11T11:33:11.119Z,27.94
2023-06-11T11:34:11.083Z,27.85
2023-06-11T11:35:11.081Z,27.69
2023-06-11T11:36:12.089Z,27.62
2023-06-11T11:37:11.087Z,27.58
2023-06-11T11:38:11.092Z,27.54
2023-06-11T11:39:13.087Z,27.47
2023-06-11T11:40:13.415Z,27.40
2023-06-11T11:41:11.083Z,27.32
2023-06-11T11:42:11.109Z,27.35
2023-06-11T11:43:13.098Z,27.34
2023-06-11T11:44:11.100Z,27.33
2023-06-11T11:45:13.116Z,27.15
2023-06-11T11:46:15.137Z,27.05
2023-06-11T11:47:11.084Z,27.02
2023-06-11T11:48:11.133Z,26.96
2023-06-11T11:49:11.104Z,26.85
2023-06-11T11:50:19.105Z,26.84
2023-06-11T11:51:11.090Z,26.85
2023-06-11T11:52:11.092Z,26.73
2023-06-11T11:53:11.089Z,26.81
2023-06-11T11:54:12.088Z,26.69
2023-06-11T11:55:11.088Z,26.73
2023-06-11T11:56:11.133Z,26.83
2023-06-11T11:57:12.084Z,26.91
2023-06-11T11:58:13.109Z,27.00
2023-06-11T11:59:17.097Z,27.01
2023-06-11T12:00:11.437Z,27.09
2023-06-11T12:01:17.097Z,27.16
2023-06-11T12:02:11.137Z,27.12
2023-06-11T12:03:11.213Z,27.16
2023-06-11T12:04:11.089Z,27.19
2023-06-11T12:05:15.098Z,27.18
2023-06-11T12:06:11.138Z,27.19
2023-06-11T12:07:16.085Z,27.26
2023-06-11T12:08:11.089Z,27.35
2023-06-11T12:09:11.086Z,27.40
2023-06-11T12:10:11.379Z,27.39
2023-06-11T12:11:11.097Z,27.46
2023-06-11T12:12:11.088Z,27.57
2023-06-11T12:13:11.082Z,27.60
2023-06-11T12:14:11.092Z,27.68
2023-06-11T12:15:11.080Z,27.73
2023-06-11T12:16:11.110Z,27.77
2023-06-11T12:17:15.091Z,27.86
2023-06-11T12:18:11.083Z,27.98
2023-06-11T12:19:23.427Z,28.16
2023-06-11T12:20:13.339Z,28.34
2023-06-11T12:21:11.083Z,28.44
2023-06-11T12:22:11.081Z,28.49
2023-06-11T12:23:11.087Z,28.61
2023-06-11T12:24:11.148Z,28.63
2023-06-11T12:25:11.126Z,28.70
2023-06-11T12:26:11.084Z,28.78
2023-06-11T12:27:12.836Z,28.81
2023-06-11T12:28:11.085Z,28.73
2023-06-11T12:29:11.085Z,28.75
2023-06-11T12:30:11.540Z,28.73
2023-06-11T12:31:11.083Z,28.97
2023-06-11T12:32:15.172Z,29.16
2023-06-11T12:33:11.145Z,29.36
2023-06-11T12:34:11.092Z,29.58
2023-06-11T12:35:11.086Z,29.75
2023-06-11T12:36:11.092Z,30.03
2023-06-11T12:37:11.084Z,30.09
2023-06-11T12:38:11.085Z,30.15
2023-06-11T12:39:11.084Z,30.15
2023-06-11T12:40:11.334Z,30.37
2023-06-11T12:41:11.083Z,30.45
2023-06-11T12:42:13.090Z,30.44
2023-06-11T12:43:11.083Z,30.15
2023-06-11T12:44:11.088Z,30.00
2023-06-11T12:45:11.086Z,29.91
2023-06-11T12:46:11.165Z,29.82
2023-06-11T12:47:11.089Z,29.79
2023-06-11T12:48:11.158Z,29.31
2023-06-11T12:49:11.088Z,29.37
2023-06-11T12:50:11.427Z,29.25
2023-06-11T12:51:11.087Z,29.15
2023-06-11T12:52:11.084Z,29.21